MET'MAP v2.0
soon released !

Expected late october,
this new version will be
more efficient, smarter,
and hosted on a brand new
server x3 powerfull...
...and still free !


Not compatible ?
Try the mobile version !

LOG IN : | Subscribe | Disclaimer | Who is Orbifly ? |
ICAO code :
Legend : VFR Marginal VFR IFR Intensive IFR Very Intensive IFR
Visi :
Ceiling :
>= 8 km
>= 3000ft
5 to 8 km
1000 to 3000 ft
1500m to 5 km
500 to 1000 ft
800 to 1500m
200 to 500 ft
< 800m
< 200 ft

METAR - LEMG Malaga - 27 May 2020 05:57 UTC - Data Source NOAA   


- Airport Elevation : 53 ft
- IATA code : AGP
- No reported NOTAMs.


LEMG - Malaga

Latest METAR recorded : 2015/08/11 08:00 LEMG 110800Z 00000KT CAVOK 30/23 Q1012 NOSIG
TAF TAF LEMG
Valid from the 27 at 00:00 until the 28 at 00:00 UTC


262300Z 2700/2724 29006KT 9999 SCT020 TX26/2713Z TN18/2705Z
TEMPO 2700/2702 VRB03KT
PROB30
TEMPO 2700/2703 BKN014
BECMG 2708/2710 13008KT

Source NOAA


MET'MAP, your aeronautical weather chart ! - Copyright ORBIFLY December 2007

Programming & Development : Alexandra Zaïnal
Co-Developer : Marc-Olivier Méhu
Technical & hardware support : Manuel Goepfert
Concept & Financing : Baudouin d'Aumeries